createdAt,value
2023-03-27T00:00:01.162Z,1005
2023-03-27T00:05:01.142Z,1005
2023-03-27T00:10:01.127Z,1005
2023-03-27T00:15:01.188Z,1005
2023-03-27T00:20:01.172Z,1005
2023-03-27T00:25:01.136Z,1006
2023-03-27T00:30:01.168Z,1006
2023-03-27T00:35:01.194Z,1006
2023-03-27T00:40:01.173Z,1006
2023-03-27T00:45:01.173Z,1006
2023-03-27T00:50:01.198Z,1006
2023-03-27T00:55:01.146Z,1006
2023-03-27T01:00:01.160Z,1006
2023-03-27T01:05:01.122Z,1006
2023-03-27T01:10:01.136Z,1006
2023-03-27T01:15:01.094Z,1006
2023-03-27T01:20:01.149Z,1006
2023-03-27T01:25:01.213Z,1006
2023-03-27T01:30:01.174Z,1006
2023-03-27T01:35:02.206Z,1006
2023-03-27T01:40:01.206Z,1007
2023-03-27T01:45:01.199Z,1007
2023-03-27T01:50:01.149Z,1007
2023-03-27T01:55:01.201Z,1007
2023-03-27T02:00:17.504Z,1007
2023-03-27T02:05:01.193Z,1007
2023-03-27T02:10:01.147Z,1007
2023-03-27T02:15:24.754Z,1007
2023-03-27T02:20:01.173Z,1007
2023-03-27T02:25:01.149Z,1007
2023-03-27T02:30:01.141Z,1007
2023-03-27T02:35:01.145Z,1007
2023-03-27T02:40:01.148Z,1007
2023-03-27T02:45:01.158Z,1007
2023-03-27T02:50:01.200Z,1008
2023-03-27T02:55:01.159Z,1008
2023-03-27T03:00:01.126Z,1008
2023-03-27T03:05:01.187Z,1008
2023-03-27T03:10:01.164Z,1008
2023-03-27T03:15:01.142Z,1008
2023-03-27T03:20:01.141Z,1008
2023-03-27T03:25:01.140Z,1008
2023-03-27T03:30:01.124Z,1008
2023-03-27T03:35:01.199Z,1008
2023-03-27T03:40:01.202Z,1008
2023-03-27T03:45:01.217Z,1008
2023-03-27T03:50:01.166Z,1008
2023-03-27T03:55:01.148Z,1008
2023-03-27T04:00:01.144Z,1008
2023-03-27T04:05:01.122Z,1009
2023-03-27T04:10:01.157Z,1009
2023-03-27T04:15:01.208Z,1009
2023-03-27T04:20:00.273Z,1009
2023-03-27T04:25:01.194Z,1009
2023-03-27T04:30:01.205Z,1009
2023-03-27T04:35:01.206Z,1009
2023-03-27T04:40:01.187Z,1009
2023-03-27T04:45:01.132Z,1009
2023-03-27T04:50:01.143Z,1009
2023-03-27T04:55:01.145Z,1009
2023-03-27T05:00:01.217Z,1009
2023-03-27T05:05:01.115Z,1009
2023-03-27T05:10:01.155Z,1009
2023-03-27T05:15:01.140Z,1009
2023-03-27T05:20:01.207Z,1009
2023-03-27T05:25:01.201Z,1010
2023-03-27T05:30:01.125Z,1010
2023-03-27T05:35:01.158Z,1010
2023-03-27T05:40:01.117Z,1010
2023-03-27T05:45:01.159Z,1010
2023-03-27T05:50:01.150Z,1010
2023-03-27T05:55:01.171Z,1010
2023-03-27T06:00:05.128Z,1010
2023-03-27T06:05:01.120Z,1010
2023-03-27T06:10:06.124Z,1010
2023-03-27T06:15:01.482Z,1010
2023-03-27T06:20:01.116Z,1010
2023-03-27T06:25:01.135Z,1010
2023-03-27T06:30:05.215Z,1011
2023-03-27T06:35:01.197Z,1011
2023-03-27T06:40:01.181Z,1010
2023-03-27T06:45:01.152Z,1010
2023-03-27T06:50:01.197Z,1010
2023-03-27T06:55:01.154Z,1011
2023-03-27T07:00:05.220Z,1011
2023-03-27T07:25:01.192Z,1011
2023-03-27T07:30:01.195Z,1011
2023-03-27T07:35:01.206Z,1011
2023-03-27T07:40:01.208Z,1011
2023-03-27T07:45:05.301Z,1011
2023-03-27T07:50:01.180Z,1011
2023-03-27T07:55:05.273Z,1011
2023-03-27T08:00:10.173Z,1011
2023-03-27T08:05:01.355Z,1011
2023-03-27T08:10:01.170Z,1011
2023-03-27T08:15:01.194Z,1011
2023-03-27T08:20:01.143Z,1012
2023-03-27T08:25:01.165Z,1012
2023-03-27T08:30:05.166Z,1012
2023-03-27T08:35:01.159Z,1012
2023-03-27T08:40:01.194Z,1012
2023-03-27T08:45:01.169Z,1012
2023-03-27T08:50:01.139Z,1012
2023-03-27T08:55:01.128Z,1012
2023-03-27T09:00:01.158Z,1012
2023-03-27T09:05:05.241Z,1012
2023-03-27T09:10:10.176Z,1012
2023-03-27T09:15:01.215Z,1012
2023-03-27T09:20:01.180Z,1012
2023-03-27T09:25:05.270Z,1012
2023-03-27T09:30:05.358Z,1012
2023-03-27T09:35:05.313Z,1012
2023-03-27T09:40:01.159Z,1012
2023-03-27T09:45:01.191Z,1012
2023-03-27T09:50:00.295Z,1012
2023-03-27T09:55:01.119Z,1012
2023-03-27T10:00:01.206Z,1012
2023-03-27T10:05:05.256Z,1012
2023-03-27T10:10:10.122Z,1012
2023-03-27T10:15:01.705Z,1012
2023-03-27T10:20:01.214Z,1012
2023-03-27T10:25:01.188Z,1012
2023-03-27T10:30:01.194Z,1013
2023-03-27T10:35:01.250Z,1012
2023-03-27T10:40:01.190Z,1013
2023-03-27T10:45:01.200Z,1013
2023-03-27T10:50:01.168Z,1013
2023-03-27T10:55:01.125Z,1012
2023-03-27T11:00:05.146Z,1013
2023-03-27T11:05:01.134Z,1012
2023-03-27T11:10:01.154Z,1012
2023-03-27T11:15:01.115Z,1013
2023-03-27T11:20:01.126Z,1013
2023-03-27T11:25:01.211Z,1013
2023-03-27T11:30:01.200Z,1013
2023-03-27T11:35:03.894Z,1013
2023-03-27T11:40:01.191Z,1013
2023-03-27T11:45:01.220Z,1013
2023-03-27T11:50:00.231Z,1013
2023-03-27T11:55:01.170Z,1013
2023-03-27T12:00:01.161Z,1013
2023-03-27T12:05:01.188Z,1013
2023-03-27T12:10:00.259Z,1013
2023-03-27T12:15:01.134Z,1013
2023-03-27T12:20:01.133Z,1013
2023-03-27T12:25:05.363Z,1013
2023-03-27T12:30:00.317Z,1013
2023-03-27T12:35:01.118Z,1013
2023-03-27T12:40:05.115Z,1013
2023-03-27T12:45:01.165Z,1013
2023-03-27T12:50:01.177Z,1013
2023-03-27T12:55:01.158Z,1013
2023-03-27T13:00:01.217Z,1014
2023-03-27T13:05:01.133Z,1013
2023-03-27T13:10:01.236Z,1014
2023-03-27T13:15:01.198Z,1014
2023-03-27T13:20:01.207Z,1013
2023-03-27T13:25:01.181Z,1013
2023-03-27T13:30:01.119Z,1014
2023-03-27T13:35:01.179Z,1014
2023-03-27T13:40:01.149Z,1013
2023-03-27T13:45:01.169Z,1014
2023-03-27T13:50:02.156Z,1014
2023-03-27T13:55:01.125Z,1014
2023-03-27T14:00:01.192Z,1014
2023-03-27T14:05:01.145Z,1014
2023-03-27T14:10:01.127Z,1014
2023-03-27T14:15:01.135Z,1014
2023-03-27T14:20:01.171Z,1014
2023-03-27T14:25:01.135Z,1014
2023-03-27T14:30:00.281Z,1014
2023-03-27T14:35:01.137Z,1014
2023-03-27T14:40:01.156Z,1014
2023-03-27T14:45:01.155Z,1014
2023-03-27T14:50:01.164Z,1014
2023-03-27T14:55:01.160Z,1014
2023-03-27T15:00:05.201Z,1014
2023-03-27T15:05:01.175Z,1014
2023-03-27T15:10:01.190Z,1014
2023-03-27T15:15:01.210Z,1014
2023-03-27T15:20:01.233Z,1014
2023-03-27T15:25:01.122Z,1014
2023-03-27T15:30:01.266Z,1014
2023-03-27T15:35:01.166Z,1014
2023-03-27T15:40:01.168Z,1014
2023-03-27T15:45:01.224Z,1014
2023-03-27T15:50:00.220Z,1014
2023-03-27T15:55:01.122Z,1014
2023-03-27T16:00:00.265Z,1014
2023-03-27T16:05:01.248Z,1014
2023-03-27T16:10:01.161Z,1014
2023-03-27T16:15:01.353Z,1014
2023-03-27T16:20:01.172Z,1014
2023-03-27T16:25:01.162Z,1015
2023-03-27T16:30:01.163Z,1014
2023-03-27T16:35:01.161Z,1015
2023-03-27T16:40:01.172Z,1015
2023-03-27T16:45:01.182Z,1015
2023-03-27T16:50:11.362Z,1015
2023-03-27T16:55:01.203Z,1015
2023-03-27T17:00:01.165Z,1015
2023-03-27T17:05:01.166Z,1015
2023-03-27T17:10:01.166Z,1015
2023-03-27T17:15:01.174Z,1015
2023-03-27T17:20:01.153Z,1015
2023-03-27T17:25:01.230Z,1015
2023-03-27T17:30:05.167Z,1015
2023-03-27T17:35:01.180Z,1016
2023-03-27T17:40:01.182Z,1016
2023-03-27T17:45:01.157Z,1016
2023-03-27T17:50:01.118Z,1016
2023-03-27T17:55:01.160Z,1016
2023-03-27T18:00:01.143Z,1016
2023-03-27T18:05:01.175Z,1016
2023-03-27T18:10:01.162Z,1016
2023-03-27T18:15:01.115Z,1016
2023-03-27T18:20:01.123Z,1016
2023-03-27T18:25:01.211Z,1016
2023-03-27T18:30:00.291Z,1016
2023-03-27T18:35:01.162Z,1016
2023-03-27T18:40:01.193Z,1016
2023-03-27T18:45:01.116Z,1016
2023-03-27T18:50:00.284Z,1016
2023-03-27T18:55:01.222Z,1016
2023-03-27T19:00:01.169Z,1016
2023-03-27T19:05:01.170Z,1016
2023-03-27T19:10:01.202Z,1016
2023-03-27T19:15:09.841Z,1017
2023-03-27T19:20:01.151Z,1017
2023-03-27T19:25:01.213Z,1017
2023-03-27T19:30:01.137Z,1017
2023-03-27T19:35:01.153Z,1017
2023-03-27T19:40:01.123Z,1017
2023-03-27T19:45:01.162Z,1017
2023-03-27T19:50:00.224Z,1017
2023-03-27T19:55:01.184Z,1017
2023-03-27T20:00:01.161Z,1017
2023-03-27T20:05:01.219Z,1017
2023-03-27T20:10:01.124Z,1017
2023-03-27T20:15:11.851Z,1017
2023-03-27T20:20:01.187Z,1017
2023-03-27T20:25:01.183Z,1017
2023-03-27T20:30:01.184Z,1017
2023-03-27T20:35:07.375Z,1017
2023-03-27T20:40:01.186Z,1017
2023-03-27T20:45:01.143Z,1017
2023-03-27T20:50:00.218Z,1017
2023-03-27T20:55:01.151Z,1017
2023-03-27T21:00:01.192Z,1017
2023-03-27T21:05:01.140Z,1017
2023-03-27T21:10:00.211Z,1017
2023-03-27T21:15:01.171Z,1017
2023-03-27T21:20:01.130Z,1017
2023-03-27T21:25:00.186Z,1017
2023-03-27T21:30:01.168Z,1017
2023-03-27T21:35:01.135Z,1017
2023-03-27T21:40:01.147Z,1017
2023-03-27T21:45:01.167Z,1017
2023-03-27T21:50:01.166Z,1017
2023-03-27T21:55:03.469Z,1017
2023-03-27T22:00:01.196Z,1017
2023-03-27T22:05:00.393Z,1017
2023-03-27T22:10:01.188Z,1018
2023-03-27T22:15:01.154Z,1018
2023-03-27T22:20:01.166Z,1018
2023-03-27T22:25:01.144Z,1018
2023-03-27T22:30:01.169Z,1018
2023-03-27T22:35:01.171Z,1018
2023-03-27T22:40:01.142Z,1018
2023-03-27T22:45:01.147Z,1018
2023-03-27T22:50:01.154Z,1018
2023-03-27T22:55:01.145Z,1018
2023-03-27T23:00:01.188Z,1018
2023-03-27T23:05:01.143Z,1018
2023-03-27T23:10:00.164Z,1018
2023-03-27T23:15:01.194Z,1018
2023-03-27T23:20:01.217Z,1018
2023-03-27T23:25:01.138Z,1018
2023-03-27T23:30:01.195Z,1018
2023-03-27T23:35:01.108Z,1018
2023-03-27T23:40:01.185Z,1018
2023-03-27T23:45:01.209Z,1018
2023-03-27T23:50:01.208Z,1018
2023-03-27T23:55:01.145Z,1018
